^^
New Milford Station Historical Data
 
Daily Summary for April 12, 2024 Units:  English    Metric   Both
Daily Weekly Monthly Yearly
  Current: High: Low: Average:
Temperature: 58.1 °F 60.9 °F 57.8 °F 59.1 °F
Dew Point: 57.9 °F 60.6 °F 57.5 °F 58.8 °F
Humidity: 99% 99% 99% 99%
Wind Speed: 3mph 5mph 0mph 0.8mph
Wind Gust: 9mph 18mph - -
WindWNW - - WSW
Pressure: 29.47 in 29.88 in 29.47 in -
Precipitation: 0.83 in      
 
 
Tabular Data for April 12, 2024
Time Temperature Dew Point Pressure Wind Wind Speed Wind Gust Humidity Rainfall Rate (Hourly) solar
00:00 57.9 °F 57.6 °F 29.88 in Calm   9 mph 99% 0.01 in W/m2
00:05 58.1 °F 57.8 °F 29.88 in NW 2 mph 10 mph 99% 0.01 in W/m2
00:10 58.2 °F 57.9 °F 29.88 in Calm   5 mph 99% 0.00 in W/m2
00:15 58.1 °F 57.8 °F 29.88 in Calm   5 mph 99% 0.01 in W/m2
00:20 58 °F 57.7 °F 29.87 in WNW 1 mph 5 mph 99% 0.02 in W/m2
00:25 58.1 °F 57.8 °F 29.87 in Calm   2 mph 99% 0.01 in W/m2
00:30 58 °F 57.8 °F 29.87 in Calm   5 mph 99% 0.01 in W/m2
00:35 58 °F 57.7 °F 29.86 in Calm   1 mph 99% 0.01 in W/m2
00:40 58 °F 57.8 °F 29.86 in Calm     99% 0.01 in W/m2
00:45 58 °F 57.7 °F 29.86 in South 1 mph 6 mph 99% 0.01 in W/m2
00:50 58.1 °F 57.8 °F 29.85 in Calm     99% 0.01 in W/m2
00:55 58 °F 57.7 °F 29.85 in Calm     99% 0.03 in W/m2
01:00 57.8 °F 57.6 °F 29.84 in Calm     99% 0.01 in W/m2
01:05 57.8 °F 57.6 °F 29.84 in Calm   1 mph 99% 0.00 in W/m2
01:10 57.9 °F 57.6 °F 29.84 in Calm   2 mph 99% 0.01 in W/m2
01:15 57.9 °F 57.6 °F 29.84 in Calm   1 mph 99% 0.00 in W/m2
01:20 57.9 °F 57.6 °F 29.83 in Calm     99% 0.01 in W/m2
01:25 57.9 °F 57.6 °F 29.82 in Calm     99% 0.01 in W/m2
01:30 57.8 °F 57.5 °F 29.82 in Calm   8 mph 99% 0.00 in W/m2
01:35 57.9 °F 57.6 °F 29.82 in Calm   4 mph 99% 0.01 in W/m2
01:40 57.9 °F 57.7 °F 29.81 in WSW 1 mph 4 mph 99% 0.00 in W/m2
01:45 58.1 °F 57.8 °F 29.81 in Calm   3 mph 99% 0.01 in W/m2
01:50 58.1 °F 57.8 °F 29.80 in Calm   3 mph 99% 0.03 in W/m2
01:55 58.1 °F 57.8 °F 29.80 in WSW 1 mph 7 mph 99% 0.01 in W/m2
02:00 58.2 °F 57.9 °F 29.79 in Calm   7 mph 99% 0.00 in W/m2
02:05 58.2 °F 57.9 °F 29.79 in Calm     99% 0.00 in W/m2
02:10 58.3 °F 58 °F 29.78 in Calm   2 mph 99% 0.03 in W/m2
02:15 58.3 °F 58 °F 29.78 in Calm   4 mph 99% 0.00 in W/m2
02:20 58.4 °F 58.1 °F 29.78 in WSW 1 mph 7 mph 99% 0.04 in W/m2
02:25 58.5 °F 58.2 °F 29.77 in Calm   2 mph 99% 0.01 in W/m2
02:30 58.4 °F 58.1 °F 29.77 in Calm   1 mph 99% 0.01 in W/m2
02:35 58.5 °F 58.2 °F 29.77 in West 1 mph 3 mph 99% 0.00 in W/m2
02:40 58.6 °F 58.3 °F 29.76 in WSW 1 mph 3 mph 99% 0.00 in W/m2
02:45 58.5 °F 58.2 °F 29.76 in Calm     99% 0.00 in W/m2
02:50 58.5 °F 58.2 °F 29.75 in North 1 mph 5 mph 99% 0.00 in W/m2
02:55 58.6 °F 58.3 °F 29.75 in Calm   1 mph 99% 0.00 in W/m2
03:00 58.7 °F 58.4 °F 29.75 in Calm   7 mph 99% 0.02 in W/m2
03:05 58.8 °F 58.5 °F 29.74 in Calm   5 mph 99% 0.01 in W/m2
03:10 58.8 °F 58.5 °F 29.74 in WNW 2 mph 5 mph 99% 0.00 in W/m2
03:15 58.9 °F 58.6 °F 29.74 in West 3 mph 12 mph 99% 0.02 in W/m2
03:20 59.2 °F 58.9 °F 29.73 in Calm   3 mph 99% 0.02 in W/m2
03:25 59.2 °F 58.9 °F 29.73 in West 2 mph 6 mph 99% 0.03 in W/m2
03:30 59.2 °F 59 °F 29.72 in WNW 3 mph 8 mph 99% 0.06 in W/m2
03:35 59.2 °F 59 °F 29.71 in NW 1 mph 6 mph 99% 0.03 in W/m2
03:40 59.4 °F 59.1 °F 29.70 in NW 1 mph 8 mph 99% 0.01 in W/m2
03:45 59.3 °F 59 °F 29.70 in NNW 2 mph 7 mph 99% 0.02 in W/m2
03:50 59.3 °F 59 °F 29.70 in Calm   2 mph 99% 0.01 in W/m2
03:55 59.2 °F 58.9 °F 29.69 in Calm   5 mph 99% 0.01 in W/m2
04:00 59.1 °F 58.8 °F 29.68 in SSW 1 mph 3 mph 99% 0.01 in W/m2
04:05 59.2 °F 58.9 °F 29.68 in SW 1 mph 5 mph 99% 0.03 in W/m2
04:10 59.2 °F 58.9 °F 29.68 in Calm   4 mph 99% 0.01 in W/m2
04:15 59.2 °F 58.9 °F 29.68 in Calm   3 mph 99% 0.02 in W/m2
04:20 59.1 °F 58.8 °F 29.68 in Calm   4 mph 99% 0.01 in W/m2
04:25 59.1 °F 58.8 °F 29.67 in Calm     99% 0.00 in W/m2
04:30 59.1 °F 58.8 °F 29.66 in Calm     99% 0.01 in W/m2
04:35 59 °F 58.7 °F 29.67 in SE 2 mph 6 mph 99% 0.02 in W/m2
04:40 59.2 °F 58.9 °F 29.66 in WNW 2 mph 7 mph 99% 0.00 in W/m2
04:45 59.4 °F 59.1 °F 29.67 in WSW 2 mph 6 mph 99% 0.00 in W/m2
04:50 59.7 °F 59.4 °F 29.67 in SSE 1 mph 6 mph 99% 0.01 in W/m2
04:55 59.7 °F 59.4 °F 29.66 in WSW 5 mph 16 mph 99% 0.00 in W/m2
05:00 59.8 °F 59.5 °F 29.66 in Calm   10 mph 99% 0.02 in W/m2
05:05 60 °F 59.7 °F 29.65 in Calm   9 mph 99% 0.00 in W/m2
05:10 60 °F 59.7 °F 29.65 in Calm   3 mph 99% 0.02 in W/m2
05:15 60 °F 59.8 °F 29.64 in Calm   3 mph 99% 0.00 in W/m2
05:20 60.3 °F 60 °F 29.63 in WSW 3 mph 12 mph 99% 0.01 in W/m2
05:25 60.3 °F 60 °F 29.63 in WSW 2 mph 6 mph 99% 0.01 in W/m2
05:30 60.3 °F 60.1 °F 29.63 in WSW 2 mph 5 mph 99% 0.00 in W/m2
05:35 60.3 °F 60 °F 29.62 in WSW 1 mph 6 mph 99% 0.01 in W/m2
05:40 60.4 °F 60.1 °F 29.62 in WSW 1 mph 9 mph 99% 0.02 in W/m2
05:45 60.5 °F 60.2 °F 29.62 in Calm   8 mph 99% 0.01 in W/m2
05:50 60.5 °F 60.2 °F 29.62 in WSW 3 mph 18 mph 99% 0.02 in W/m2
05:55 60.6 °F 60.3 °F 29.62 in WSW 1 mph 9 mph 99% 0.00 in W/m2
06:00 60.8 °F 60.5 °F 29.62 in SW 1 mph 6 mph 99% 0.00 in W/m2
06:05 60.8 °F 60.5 °F 29.62 in Calm   11 mph 99% 0.00 in W/m2
06:10 60.9 °F 60.6 °F 29.62 in WSW 2 mph 8 mph 99% 0.01 in W/m2
06:15 60.7 °F 60.4 °F 29.61 in West 2 mph 6 mph 99% 0.00 in W/m2
06:20 60.7 °F 60.4 °F 29.61 in WSW 1 mph 7 mph 99% 0.00 in W/m2
06:25 60.7 °F 60.4 °F 29.61 in WSW 5 mph 9 mph 99% 0.00 in W/m2
06:30 60.6 °F 60.4 °F 29.62 in Calm   6 mph 99% 0.00 in W/m2
06:35 60.6 °F 60.3 °F 29.61 in South 1 mph 7 mph 99% 0.00 in W/m2
06:40 60.5 °F 60.2 °F 29.61 in SW 3 mph 13 mph 99% 0.00 in W/m2
06:45 60.5 °F 60.3 °F 29.59 in Calm   12 mph 99% 0.00 in W/m2
06:50 60.5 °F 60.2 °F 29.59 in Calm   12 mph 99% 0.00 in W/m2
06:55 60.4 °F 60.1 °F 29.59 in NNW 1 mph 5 mph 99% 0.00 in W/m2
07:00 60.3 °F 60.1 °F 29.59 in Calm   2 mph 99% 0.00 in W/m2
07:05 60.2 °F 59.9 °F 29.59 in ENE 1 mph 9 mph 99% 0.00 in W/m2
07:10 60.3 °F 60 °F 29.60 in SSW 1 mph 8 mph 99% 0.00 in W/m2
07:15 60.2 °F 60 °F 29.60 in Calm   6 mph 99% 0.00 in W/m2
07:20 60.1 °F 59.8 °F 29.60 in West 2 mph 8 mph 99% 0.00 in W/m2
07:25 60.1 °F 59.9 °F 29.60 in West 2 mph 7 mph 99% 0.00 in W/m2
07:30 60.1 °F 59.8 °F 29.60 in WSW 1 mph 5 mph 99% 0.00 in W/m2
07:35 59.9 °F 59.6 °F 29.61 in WSW 3 mph 6 mph 99% 0.00 in W/m2
07:40 59.7 °F 59.5 °F 29.61 in Calm   5 mph 99% 0.00 in W/m2
07:45 59.7 °F 59.4 °F 29.61 in West 1 mph 5 mph 99% 0.00 in W/m2
07:50 59.5 °F 59.2 °F 29.60 in West 1 mph 8 mph 99% 0.00 in W/m2
07:55 59.3 °F 59 °F 29.60 in SW 1 mph 6 mph 99% 0.00 in W/m2
08:00 59.4 °F 59.1 °F 29.60 in SSW 2 mph 5 mph 99% 0.00 in W/m2
08:05 59.3 °F 59.1 °F 29.60 in Calm   7 mph 99% 0.00 in W/m2
08:10 59.2 °F 58.9 °F 29.60 in West 5 mph 9 mph 99% 0.00 in W/m2
08:15 59.2 °F 59 °F 29.59 in Calm   5 mph 99% 0.00 in W/m2
08:20 59.2 °F 58.9 °F 29.59 in Calm   5 mph 99% 0.00 in W/m2
08:25 59 °F 58.8 °F 29.58 in Calm   5 mph 99% 0.00 in W/m2
08:30 58.9 °F 58.6 °F 29.58 in Calm   8 mph 99% 0.00 in W/m2
08:35 58.9 °F 58.6 °F 29.58 in Calm   6 mph 99% 0.00 in W/m2
08:40 58.8 °F 58.5 °F 29.58 in SW 1 mph 4 mph 99% 0.00 in W/m2
08:45 58.7 °F 58.4 °F 29.57 in WSW 1 mph 9 mph 99% 0.00 in W/m2
08:50 58.8 °F 58.5 °F 29.57 in Calm   4 mph 99% 0.00 in W/m2
08:55 58.7 °F 58.4 °F 29.57 in Calm   3 mph 99% 0.00 in W/m2
09:00 58.7 °F 58.5 °F 29.57 in Calm   4 mph 99% 0.00 in W/m2
09:05 58.8 °F 58.5 °F 29.57 in West 1 mph 7 mph 99% 0.00 in W/m2
09:10 58.9 °F 58.6 °F 29.57 in West 2 mph 7 mph 99% 0.00 in W/m2
09:15 59.2 °F 58.9 °F 29.57 in WSW 1 mph 7 mph 99% 0.00 in W/m2
09:20 59.4 °F 59.1 °F 29.57 in Calm   4 mph 99% 0.00 in W/m2
09:25 59.5 °F 59.3 °F 29.56 in Calm   2 mph 99% 0.00 in W/m2
09:30 59.6 °F 59.3 °F 29.56 in SW 1 mph 2 mph 99% 0.00 in W/m2
09:35 59.7 °F 59.4 °F 29.56 in SW 1 mph 8 mph 99% 0.01 in W/m2
09:40 59.7 °F 59.5 °F 29.56 in SW 1 mph 6 mph 99% 0.00 in W/m2
09:45 59.6 °F 59.3 °F 29.56 in Calm   3 mph 99% 0.00 in W/m2
09:50 59.6 °F 59.3 °F 29.56 in WSW 1 mph 2 mph 99% 0.00 in W/m2
09:55 59.5 °F 59.2 °F 29.56 in West 1 mph 3 mph 99% 0.00 in W/m2
10:00 59.4 °F 59.1 °F 29.56 in Calm   5 mph 99% 0.00 in W/m2
10:05 59.2 °F 59 °F 29.56 in West 1 mph 9 mph 99% 0.00 in W/m2
10:10 59.1 °F 58.8 °F 29.55 in Calm   3 mph 99% 0.00 in W/m2
10:15 58.9 °F 58.7 °F 29.55 in West 2 mph 6 mph 99% 0.00 in W/m2
10:20 59 °F 58.7 °F 29.55 in Calm   3 mph 99% 0.00 in W/m2
10:25 58.9 °F 58.6 °F 29.55 in WSW 1 mph 3 mph 99% 0.00 in W/m2
10:30 58.9 °F 58.6 °F 29.54 in Calm   2 mph 99% 0.00 in W/m2
10:35 58.9 °F 58.7 °F 29.54 in WSW 1 mph 6 mph 99% 0.00 in W/m2
10:40 58.9 °F 58.6 °F 29.54 in West 2 mph 5 mph 99% 0.00 in W/m2
10:45 59 °F 58.7 °F 29.54 in Calm   2 mph 99% 0.00 in W/m2
10:50 58.9 °F 58.6 °F 29.54 in Calm   7 mph 99% 0.00 in W/m2
10:55 58.9 °F 58.6 °F 29.54 in WNW 2 mph 6 mph 99% 0.00 in W/m2
11:00 58.7 °F 58.4 °F 29.53 in Calm   6 mph 99% 0.00 in W/m2
11:05 58.6 °F 58.3 °F 29.53 in North 2 mph 9 mph 99% 0.00 in W/m2
11:10 58.7 °F 58.5 °F 29.53 in Calm   2 mph 99% 0.00 in W/m2
11:15 58.8 °F 58.5 °F 29.52 in Calm     99% 0.00 in W/m2
11:20 58.8 °F 58.5 °F 29.52 in Calm     99% 0.00 in W/m2
11:25 58.7 °F 58.4 °F 29.53 in WNW 1 mph 4 mph 99% 0.00 in W/m2
11:30 58.5 °F 58.3 °F 29.52 in Calm   5 mph 99% 0.00 in W/m2
11:35 58.8 °F 58.5 °F 29.52 in WSW 1 mph 7 mph 99% 0.00 in W/m2
11:40 58.7 °F 58.4 °F 29.52 in Calm   5 mph 99% 0.00 in W/m2
11:45 58.7 °F 58.4 °F 29.51 in Calm   4 mph 99% 0.00 in W/m2
11:50 58.7 °F 58.4 °F 29.51 in Calm   3 mph 99% 0.00 in W/m2
11:55 58.7 °F 58.4 °F 29.50 in Calm   2 mph 99% 0.00 in W/m2
12:00 58.6 °F 58.3 °F 29.50 in NE 1 mph 8 mph 99% 0.00 in W/m2
12:05 58.7 °F 58.4 °F 29.49 in Calm     99% 0.01 in W/m2
12:10 59 °F 58.7 °F 29.49 in WNW 1 mph 7 mph 99% 0.00 in W/m2
12:15 59.2 °F 58.9 °F 29.49 in Calm   2 mph 99% 0.00 in W/m2
12:20 59.4 °F 59.1 °F 29.48 in Calm     99% 0.00 in W/m2
12:25 59.4 °F 59.1 °F 29.48 in Calm     99% 0.00 in W/m2
12:30 59.4 °F 59.1 °F 29.48 in NNW 2 mph 4 mph 99% 0.00 in W/m2
12:35 59.3 °F 59.1 °F 29.47 in Calm   2 mph 99% 0.00 in W/m2
12:40 59.4 °F 59.1 °F 29.47 in WSW 1 mph 5 mph 99% 0.00 in W/m2
12:45 59.4 °F 59.2 °F 29.47 in Calm   1 mph 99% 0.00 in W/m2
12:50 59.4 °F 59.1 °F 29.47 in West 1 mph 4 mph 99% 0.00 in W/m2
12:55 59.3 °F 59.1 °F 29.47 in Calm   5 mph 99% 0.00 in W/m2
13:00 59.3 °F 59 °F 29.47 in Calm   5 mph 99% 0.00 in W/m2
13:05 59.1 °F 58.9 °F 29.47 in Calm   1 mph 99% 0.00 in W/m2
13:10 59.1 °F 58.8 °F 29.47 in Calm   3 mph 99% 0.00 in W/m2
13:15 58.8 °F 58.6 °F 29.47 in Calm   2 mph 99% 0.00 in W/m2
13:20 58.8 °F 58.5 °F 29.47 in WSW 2 mph 7 mph 99% 0.00 in W/m2
13:25 58.4 °F 58.1 °F 29.47 in WSW 2 mph 6 mph 99% 0.00 in W/m2
13:30 58.3 °F 58 °F 29.47 in Calm   2 mph 99% 0.00 in W/m2
13:35 58.2 °F 57.9 °F 29.47 in Calm   2 mph 99% 0.00 in W/m2
13:40 58.1 °F 57.9 °F 29.47 in WNW 3 mph 9 mph 99% 0.00 in W/m2
Compliments of Weather Underground - 1.75 mb